Time;durP1;ratioP1;P1;durP2;ratioP2;P2;SDS_P1;SDS_P2;PMS_P1;PMS_P2;Temp;Humidity;BMP_temperature;BMP_pressure;BME280_temperature;BME280_humidity;BME280_pressure;Samples;Min_cycle;Max_cycle;Signal;HPM_P1;HPM_P2
2021/07/10 00:00:39;;;;;;;9.00;8.10;;;15.00;99.90;;;;;;4994065;28;20456;-77
2021/07/10 00:03:07;;;;;;;9.37;7.70;;;14.90;99.90;;;;;;4994000;28;20432;-77
2021/07/10 00:05:34;;;;;;;8.00;7.30;;;14.90;99.90;;;;;;4993923;28;20928;-77
2021/07/10 00:08:01;;;;;;;8.73;7.93;;;14.90;99.90;;;;;;4993776;28;20500;-77
2021/07/10 00:10:29;;;;;;;9.20;8.10;;;14.90;99.90;;;;;;4994089;28;20453;-77
2021/07/10 00:12:56;;;;;;;8.10;7.30;;;14.90;99.90;;;;;;4994080;28;20444;-77
2021/07/10 00:15:25;;;;;;;8.57;7.77;;;14.90;99.90;;;;;;4993991;28;20449;-77
2021/07/10 00:17:52;;;;;;;7.80;7.10;;;14.80;99.90;;;;;;4994173;28;20471;-77
2021/07/10 00:20:20;;;;;;;9.13;8.23;;;14.80;99.90;;;;;;4993614;28;20456;-77
2021/07/10 00:22:48;;;;;;;8.00;7.20;;;14.80;99.90;;;;;;4993754;28;20448;-76
2021/07/10 00:25:17;;;;;;;7.70;7.00;;;14.70;99.90;;;;;;4993856;28;20433;-77
2021/07/10 00:27:46;;;;;;;8.90;8.10;;;14.70;99.90;;;;;;4993745;28;20459;-77
2021/07/10 00:30:16;;;;;;;7.73;6.97;;;14.70;99.90;;;;;;4993837;28;20471;-77
2021/07/10 00:32:42;;;;;;;11.23;7.57;;;14.70;99.90;;;;;;4993670;28;20833;-77
2021/07/10 00:35:10;;;;;;;8.67;7.80;;;14.70;99.90;;;;;;4993458;28;20448;-77
2021/07/10 00:37:37;;;;;;;10.43;9.10;;;14.70;99.90;;;;;;4993600;28;20445;-77
2021/07/10 00:40:05;;;;;;;7.73;6.93;;;14.60;99.90;;;;;;4993581;28;20437;-77
2021/07/10 00:42:33;;;;;;;10.93;7.97;;;14.60;99.90;;;;;;4993922;28;20452;-77
2021/07/10 00:45:01;;;;;;;8.93;7.97;;;14.60;99.90;;;;;;4993583;28;20449;-77
2021/07/10 00:47:28;;;;;;;8.80;7.90;;;14.60;99.90;;;;;;4993614;28;20440;-77
2021/07/10 00:49:55;;;;;;;9.00;8.20;;;14.60;99.90;;;;;;4993288;28;20483;-77
2021/07/10 00:52:21;;;;;;;9.83;8.10;;;14.60;99.90;;;;;;4993347;28;20813;-77
2021/07/10 00:54:48;;;;;;;10.30;8.47;;;14.60;99.90;;;;;;4997157;28;20951;-77
2021/07/10 00:57:16;;;;;;;8.50;7.67;;;14.60;99.90;;;;;;4997337;28;20444;-77
2021/07/10 00:59:44;;;;;;;8.77;7.87;;;14.60;99.90;;;;;;4997180;28;20470;-77
2021/07/10 01:02:12;;;;;;;9.17;8.27;;;14.50;99.90;;;;;;4997162;28;20488;-77
2021/07/10 01:04:40;;;;;;;28.37;25.37;;;14.50;99.90;;;;;;4997547;28;20453;-77
2021/07/10 01:07:07;;;;;;;9.93;8.30;;;14.50;99.90;;;;;;4997194;28;20936;-77
2021/07/10 01:09:33;;;;;;;8.77;7.87;;;14.50;99.90;;;;;;4996997;28;20499;-77
2021/07/10 01:12:00;;;;;;;8.90;8.00;;;14.50;99.90;;;;;;4997338;28;20445;-77
2021/07/10 01:14:27;;;;;;;8.73;7.93;;;14.50;99.90;;;;;;4997341;28;20448;-77
2021/07/10 01:16:54;;;;;;;8.83;7.87;;;14.50;99.90;;;;;;4996782;28;20948;-77
2021/07/10 01:19:26;;;;;;;10.30;7.53;;;14.50;99.90;;;;;;4996910;28;20994;-77
2021/07/10 01:21:54;;;;;;;9.50;7.90;;;14.50;99.90;;;;;;4997241;28;20448;-77
2021/07/10 01:24:21;;;;;;;8.67;7.83;;;14.50;99.90;;;;;;4996597;28;20453;-77
2021/07/10 01:26:48;;;;;;;8.40;7.60;;;14.50;99.90;;;;;;4997072;28;20448;-77
2021/07/10 01:29:15;;;;;;;8.20;7.40;;;14.50;99.90;;;;;;4996637;28;20556;-77
2021/07/10 01:31:43;;;;;;;8.47;7.70;;;14.50;99.90;;;;;;4996892;28;20444;-77
2021/07/10 01:34:10;;;;;;;8.00;6.70;;;14.50;99.90;;;;;;4997155;28;20452;-77
2021/07/10 01:36:37;;;;;;;8.03;7.30;;;14.40;99.90;;;;;;4996526;28;20433;-77
2021/07/10 01:39:08;;;;;;;8.60;7.70;;;14.40;99.90;;;;;;4996774;28;20468;-77
2021/07/10 01:41:46;;;;;;;7.47;6.87;;;14.40;99.90;;;;;;4996856;28;20436;-77
2021/07/10 01:44:13;;;;;;;8.70;7.77;;;14.40;99.90;;;;;;4977275;28;20956;-77
2021/07/10 01:46:41;;;;;;;8.30;7.50;;;14.40;99.90;;;;;;4993206;28;20448;-77
2021/07/10 01:49:07;;;;;;;7.50;6.87;;;14.40;99.90;;;;;;4996128;28;20484;-77
2021/07/10 01:51:35;;;;;;;7.97;7.00;;;14.30;99.90;;;;;;4996800;28;20452;-77
2021/07/10 01:54:01;;;;;;;9.33;7.47;;;14.30;99.90;;;;;;4996608;28;20448;-77
2021/07/10 01:56:29;;;;;;;8.67;7.60;;;14.20;99.90;;;;;;4996380;28;20459;-77
2021/07/10 01:58:56;;;;;;;9.70;7.10;;;14.20;99.90;;;;;;4996271;28;20464;-77
2021/07/10 02:01:23;;;;;;;7.70;7.00;;;14.20;99.90;;;;;;4996067;28;20472;-77
2021/07/10 02:03:50;;;;;;;10.70;7.40;;;14.20;99.90;;;;;;4995670;28;20452;-77
2021/07/10 02:06:17;;;;;;;8.33;7.50;;;14.20;99.90;;;;;;4995426;28;20441;-77
2021/07/10 02:08:44;;;;;;;8.80;7.90;;;14.20;99.90;;;;;;4995688;28;20570;-77
2021/07/10 02:11:11;;;;;;;8.60;7.70;;;14.10;99.90;;;;;;4995693;28;20933;-77
2021/07/10 02:13:39;;;;;;;11.13;9.50;;;14.20;99.90;;;;;;4996126;28;20444;-77
2021/07/10 02:16:06;;;;;;;11.00;9.90;;;14.20;99.90;;;;;;4995969;28;20448;-77
2021/07/10 02:18:33;;;;;;;11.90;9.90;;;14.20;99.90;;;;;;4995828;28;20467;-76
2021/07/10 02:21:00;;;;;;;11.03;9.70;;;14.20;99.90;;;;;;4995591;28;20824;-77
2021/07/10 02:23:27;;;;;;;10.77;9.63;;;14.20;99.90;;;;;;4995756;28;20443;-77
2021/07/10 02:25:54;;;;;;;12.07;9.77;;;14.20;99.90;;;;;;4995876;28;20455;-77
2021/07/10 02:28:21;;;;;;;12.30;10.00;;;14.20;99.90;;;;;;4995259;28;20808;-77
2021/07/10 02:30:49;;;;;;;12.43;11.13;;;14.20;99.90;;;;;;4995739;28;20453;-77
2021/07/10 02:33:17;;;;;;;13.17;10.40;;;14.20;99.90;;;;;;4995921;28;20460;-77
2021/07/10 02:35:44;;;;;;;11.10;9.80;;;14.20;99.90;;;;;;4995637;28;20433;-77
2021/07/10 02:38:12;;;;;;;11.83;9.77;;;14.20;99.90;;;;;;4995495;28;20456;-76
2021/07/10 02:40:39;;;;;;;12.20;10.20;;;14.10;99.90;;;;;;4995792;28;20452;-77
2021/07/10 02:43:06;;;;;;;11.40;10.20;;;14.10;99.90;;;;;;4995763;28;20449;-77
2021/07/10 02:45:33;;;;;;;12.27;9.87;;;14.10;99.90;;;;;;4995191;28;20954;-76
2021/07/10 02:48:02;;;;;;;13.10;9.40;;;14.10;99.90;;;;;;4995326;28;20552;-77
2021/07/10 02:50:29;;;;;;;11.17;9.90;;;14.00;99.90;;;;;;4995324;28;20516;-77
2021/07/10 02:52:56;;;;;;;14.43;10.17;;;14.00;99.90;;;;;;4995140;28;20429;-77
2021/07/10 02:55:25;;;;;;;12.20;10.37;;;14.00;99.90;;;;;;4995345;28;20448;-76
2021/07/10 02:57:51;;;;;;;11.10;9.37;;;14.00;99.90;;;;;;4995390;28;20476;-77
2021/07/10 03:00:20;;;;;;;15.73;10.50;;;14.00;99.90;;;;;;4995185;28;20440;-77
2021/07/10 03:02:47;;;;;;;12.60;10.07;;;14.00;99.90;;;;;;4994736;28;20479;-77
2021/07/10 03:05:16;;;;;;;9.67;8.67;;;13.90;99.90;;;;;;4995189;28;20452;-76
2021/07/10 03:07:45;;;;;;;10.67;9.40;;;13.90;99.90;;;;;;4995147;28;20457;-76
2021/07/10 03:10:14;;;;;;;14.20;11.10;;;13.90;99.90;;;;;;4994899;28;20850;-77
2021/07/10 03:12:41;;;;;;;17.37;13.77;;;13.90;99.90;;;;;;4994933;28;20452;-76
2021/07/10 03:15:09;;;;;;;1559.47;682.30;;;13.90;99.90;;;;;;4994785;28;20455;-77
2021/07/10 03:17:36;;;;;;;51.97;15.40;;;14.00;99.90;;;;;;4994769;28;20459;-77
2021/07/10 03:20:05;;;;;;;19.77;13.60;;;14.00;99.90;;;;;;4994809;28;20453;-77
2021/07/10 03:22:34;;;;;;;17.50;13.40;;;14.00;99.90;;;;;;4994811;28;20449;-77
2021/07/10 03:25:01;;;;;;;19.50;14.53;;;14.00;99.90;;;;;;4994883;28;20448;-76
2021/07/10 03:27:27;;;;;;;17.00;13.13;;;14.00;99.90;;;;;;4995144;28;20455;-77
2021/07/10 03:29:54;;;;;;;16.43;12.03;;;14.00;99.90;;;;;;4994414;28;20480;-77
2021/07/10 03:32:21;;;;;;;14.60;12.20;;;14.10;99.90;;;;;;4994662;28;20452;-76
2021/07/10 03:34:47;;;;;;;16.10;12.23;;;14.00;99.90;;;;;;4994525;28;20437;-77
2021/07/10 03:37:14;;;;;;;13.50;10.80;;;14.00;99.90;;;;;;4995057;28;20478;-77
2021/07/10 03:39:42;;;;;;;14.97;12.57;;;14.00;99.90;;;;;;4994106;28;21087;-77
2021/07/10 03:42:10;;;;;;;15.13;11.57;;;14.00;99.90;;;;;;4994096;28;20935;-77
2021/07/10 03:44:36;;;;;;;16.23;12.03;;;14.00;99.90;;;;;;4994615;28;20445;-76
2021/07/10 03:47:03;;;;;;;16.30;11.83;;;13.90;99.90;;;;;;4994090;28;20444;-77
2021/07/10 03:49:30;;;;;;;14.97;11.63;;;13.90;99.90;;;;;;4994194;28;20484;-77
2021/07/10 03:51:57;;;;;;;13.07;11.20;;;13.90;99.90;;;;;;4993942;28;20823;-77
2021/07/10 03:54:24;;;;;;;12.77;11.23;;;13.90;99.90;;;;;;4994430;28;20452;-77
2021/07/10 03:56:52;;;;;;;14.07;11.23;;;13.90;99.90;;;;;;4994239;28;20457;-76
2021/07/10 03:59:19;;;;;;;14.63;11.47;;;13.80;99.90;;;;;;4994101;28;20464;-76
2021/07/10 04:01:46;;;;;;;14.60;11.20;;;13.80;99.90;;;;;;4993821;28;20484;-77
2021/07/10 04:04:13;;;;;;;15.30;11.73;;;13.90;99.90;;;;;;4994215;28;20476;-76
2021/07/10 04:06:40;;;;;;;12.73;11.13;;;13.90;99.90;;;;;;4993731;28;20798;-76
2021/07/10 04:09:07;;;;;;;14.00;11.73;;;13.90;99.90;;;;;;4993510;28;20487;-76
2021/07/10 04:11:34;;;;;;;12.47;11.17;;;14.00;99.90;;;;;;4993848;28;20455;-76
2021/07/10 04:14:02;;;;;;;15.37;12.20;;;14.00;99.90;;;;;;4994420;28;20455;-77
2021/07/10 04:16:29;;;;;;;15.40;11.07;;;14.00;99.90;;;;;;4993551;28;20449;-76
2021/07/10 04:18:55;;;;;;;12.13;10.60;;;14.00;99.90;;;;;;4993896;28;20992;-76
2021/07/10 04:21:22;;;;;;;17.73;12.73;;;14.00;99.90;;;;;;4993537;28;20449;-76
2021/07/10 04:23:49;;;;;;;13.87;11.10;;;14.00;99.90;;;;;;4993693;28;20436;-77
2021/07/10 04:26:16;;;;;;;14.17;11.40;;;14.10;99.90;;;;;;4993564;28;20455;-76
2021/07/10 04:28:43;;;;;;;13.70;11.00;;;14.10;99.90;;;;;;4992900;28;20468;-76
2021/07/10 04:31:11;;;;;;;14.93;11.30;;;14.10;99.90;;;;;;4993985;28;20444;-76
2021/07/10 04:33:38;;;;;;;13.80;10.53;;;14.10;99.90;;;;;;4993676;28;20444;-76
2021/07/10 04:36:05;;;;;;;16.53;13.00;;;14.10;99.90;;;;;;4994007;28;20444;-76
2021/07/10 04:38:32;;;;;;;12.20;10.60;;;14.10;99.90;;;;;;4993226;28;20994;-77
2021/07/10 04:40:59;;;;;;;12.57;10.87;;;14.20;99.90;;;;;;4993818;28;20451;-76
2021/07/10 04:43:25;;;;;;;12.63;11.33;;;14.20;99.90;;;;;;4993558;28;20448;-76
2021/07/10 04:45:52;;;;;;;13.37;11.80;;;14.30;99.90;;;;;;4993781;28;20812;-76
2021/07/10 04:48:20;;;;;;;15.03;12.20;;;14.30;99.90;;;;;;4993144;28;20832;-76
2021/07/10 04:50:47;;;;;;;13.70;11.50;;;14.40;99.90;;;;;;4993342;28;20488;-76
2021/07/10 04:53:14;;;;;;;15.63;11.80;;;14.40;99.90;;;;;;4993107;28;20808;-77
2021/07/10 04:55:40;;;;;;;12.00;10.73;;;14.50;99.90;;;;;;4993359;28;20453;-76
2021/07/10 04:58:07;;;;;;;13.90;11.00;;;14.50;99.90;;;;;;4993296;28;20472;-77
2021/07/10 05:00:34;;;;;;;12.80;10.73;;;14.50;99.90;;;;;;4993104;28;20452;-78
2021/07/10 05:03:01;;;;;;;10.50;9.40;;;14.60;99.90;;;;;;4993446;28;20614;-77
2021/07/10 05:05:29;;;;;;;12.33;9.40;;;14.70;99.90;;;;;;4993277;28;20488;-76
2021/07/10 05:07:56;;;;;;;10.67;9.57;;;14.70;99.90;;;;;;4993140;28;20457;-76
2021/07/10 05:10:23;;;;;;;10.40;9.30;;;14.80;99.90;;;;;;4993050;28;20495;-76
2021/07/10 05:12:49;;;;;;;11.33;9.17;;;14.80;99.90;;;;;;4993290;28;20456;-77
2021/07/10 05:15:17;;;;;;;9.60;8.70;;;14.90;99.90;;;;;;4993368;28;20455;-76
2021/07/10 05:17:44;;;;;;;10.43;9.33;;;15.00;99.90;;;;;;4993064;28;20479;-77
2021/07/10 05:20:12;;;;;;;12.00;9.57;;;15.00;99.90;;;;;;4993170;28;20455;-77
2021/07/10 05:22:40;;;;;;;9.60;8.67;;;15.10;99.90;;;;;;4993324;28;20448;-76
2021/07/10 05:25:09;;;;;;;9.77;8.43;;;15.10;99.90;;;;;;4993148;28;20440;-76
2021/07/10 05:27:35;;;;;;;8.97;8.00;;;15.10;99.90;;;;;;4992784;28;20433;-77
2021/07/10 05:30:04;;;;;;;9.33;8.40;;;15.10;99.90;;;;;;4993080;28;20476;-77
2021/07/10 05:32:31;;;;;;;9.80;8.80;;;15.20;99.90;;;;;;4992962;28;20943;-77
2021/07/10 05:34:57;;;;;;;9.03;8.13;;;15.20;99.90;;;;;;4993153;28;20451;-77
2021/07/10 05:37:24;;;;;;;9.37;8.47;;;15.20;99.90;;;;;;4993045;28;20455;-77
2021/07/10 05:39:52;;;;;;;9.70;8.70;;;15.30;99.90;;;;;;4995019;28;20465;-77
2021/07/10 05:42:19;;;;;;;8.80;7.87;;;15.40;99.90;;;;;;4996451;28;20959;-77
2021/07/10 05:44:46;;;;;;;8.83;7.80;;;15.50;99.90;;;;;;4996556;28;20452;-77
2021/07/10 05:47:12;;;;;;;9.50;8.60;;;15.60;99.90;;;;;;4996641;28;20444;-77
2021/07/10 05:49:39;;;;;;;12.10;8.13;;;15.70;99.90;;;;;;4996086;28;20483;-77
2021/07/10 05:52:06;;;;;;;9.47;8.53;;;15.80;99.90;;;;;;4996960;28;20452;-77
2021/07/10 05:54:33;;;;;;;10.37;8.87;;;15.90;99.90;;;;;;4996151;28;20443;-78
2021/07/10 05:57:01;;;;;;;9.20;8.37;;;16.10;99.90;;;;;;4996347;28;20444;-78
2021/07/10 05:59:28;;;;;;;9.73;8.83;;;16.20;99.90;;;;;;4996231;28;20460;-77
2021/07/10 06:01:55;;;;;;;8.77;8.00;;;16.30;99.90;;;;;;4996201;28;20479;-78
2021/07/10 06:04:21;;;;;;;9.10;8.17;;;16.50;99.90;;;;;;4996239;28;20452;-77
2021/07/10 06:06:49;;;;;;;9.67;8.63;;;16.60;99.90;;;;;;4996128;28;20452;-77
2021/07/10 06:09:16;;;;;;;11.03;7.90;;;16.70;99.90;;;;;;4996141;28;20464;-78
2021/07/10 06:11:43;;;;;;;7.50;6.80;;;16.80;99.90;;;;;;4995744;28;20441;-78
2021/07/10 06:14:12;;;;;;;8.70;7.80;;;16.90;99.90;;;;;;4996013;28;20448;-77
2021/07/10 06:16:39;;;;;;;8.03;7.20;;;17.00;99.90;;;;;;4996185;28;20455;-78
2021/07/10 06:19:06;;;;;;;8.10;7.30;;;17.10;99.90;;;;;;4995778;28;20452;-77
2021/07/10 06:21:33;;;;;;;7.70;7.00;;;17.20;99.90;;;;;;4995888;28;20467;-77
2021/07/10 06:23:59;;;;;;;6.87;6.27;;;17.40;99.90;;;;;;4995843;28;20453;-77
2021/07/10 06:26:26;;;;;;;9.53;6.87;;;17.50;99.90;;;;;;4995648;28;20437;-77
2021/07/10 06:28:53;;;;;;;7.37;6.67;;;17.70;99.90;;;;;;4996150;28;20479;-77
2021/07/10 06:31:22;;;;;;;7.60;6.53;;;17.90;99.90;;;;;;4995898;28;20476;-78
2021/07/10 06:33:49;;;;;;;5.67;5.17;;;18.10;99.90;;;;;;4995862;28;20931;-78
2021/07/10 06:36:16;;;;;;;5.10;4.73;;;18.20;99.90;;;;;;4996104;28;20433;-79
2021/07/10 06:38:43;;;;;;;5.60;5.20;;;18.30;99.90;;;;;;4996004;28;20512;-79
2021/07/10 06:41:10;;;;;;;5.23;4.83;;;18.40;99.90;;;;;;4996011;28;20433;-79
2021/07/10 06:43:37;;;;;;;6.67;5.93;;;18.40;99.90;;;;;;4995972;28;20437;-79
2021/07/10 06:46:07;;;;;;;5.73;5.33;;;18.40;99.90;;;;;;4995895;28;20447;-79
2021/07/10 06:48:35;;;;;;;7.10;4.97;;;18.50;99.90;;;;;;4995468;28;20853;-79
2021/07/10 06:51:02;;;;;;;5.77;5.37;;;18.50;99.90;;;;;;4994767;28;20910;-79
2021/07/10 06:53:29;;;;;;;5.03;4.57;;;18.60;99.90;;;;;;4995773;28;20432;-79
2021/07/10 06:55:56;;;;;;;5.23;4.83;;;18.70;99.90;;;;;;4995690;28;20455;-79
2021/07/10 06:58:23;;;;;;;5.63;4.70;;;18.90;99.90;;;;;;4995633;28;20468;-78
2021/07/10 07:00:50;;;;;;;5.50;5.00;;;18.90;99.90;;;;;;4995453;28;20476;-79
2021/07/10 07:03:17;;;;;;;5.30;4.90;;;19.10;99.90;;;;;;4995291;28;20901;-80
2021/07/10 07:05:45;;;;;;;7.17;5.70;;;19.30;99.90;;;;;;4995547;28;20441;-80
2021/07/10 07:08:12;;;;;;;5.63;5.23;;;19.40;99.90;;;;;;4995436;28;20473;-79
2021/07/10 07:10:39;;;;;;;6.30;5.57;;;19.50;99.90;;;;;;4995088;28;20842;-81
2021/07/10 07:13:06;;;;;;;6.80;6.17;;;19.70;99.90;;;;;;4995437;28;20441;-79
2021/07/10 07:15:32;;;;;;;5.97;5.37;;;19.70;99.90;;;;;;4995348;28;20455;-79
2021/07/10 07:17:59;;;;;;;6.27;5.77;;;19.80;99.90;;;;;;4995007;28;20980;-79
2021/07/10 07:20:26;;;;;;;6.10;5.53;;;19.90;99.90;;;;;;4994975;28;20814;-78
2021/07/10 07:22:54;;;;;;;5.40;5.00;;;20.00;99.90;;;;;;4995309;28;20457;-79
2021/07/10 07:25:23;;;;;;;5.20;4.90;;;20.20;99.90;;;;;;4995195;28;20459;-78
2021/07/10 07:27:51;;;;;;;6.00;5.40;;;20.30;99.90;;;;;;4994788;28;20455;-78
2021/07/10 07:30:19;;;;;;;5.17;4.80;;;20.40;99.90;;;;;;4995054;28;20495;-79
2021/07/10 07:32:46;;;;;;;4.73;4.50;;;20.50;99.90;;;;;;4995093;28;20448;-80
2021/07/10 07:35:14;;;;;;;4.87;4.47;;;20.60;99.90;;;;;;4994899;28;20463;-80
2021/07/10 07:37:42;;;;;;;5.20;4.80;;;20.80;99.90;;;;;;4994677;28;20436;-79
2021/07/10 07:40:14;;;;;;;5.20;4.80;;;21.00;99.90;;;;;;4994948;28;20443;-80
2021/07/10 07:42:42;;;;;;;4.50;4.30;;;21.30;99.90;;;;;;4995113;28;20437;-79
2021/07/10 07:45:10;;;;;;;4.10;3.90;;;21.30;99.90;;;;;;4994372;28;20808;-80
2021/07/10 07:47:38;;;;;;;4.83;4.43;;;21.30;99.90;;;;;;4994476;28;20444;-80
2021/07/10 07:50:06;;;;;;;4.37;4.17;;;21.40;99.90;;;;;;4994243;28;20829;-80
2021/07/10 07:52:33;;;;;;;4.17;3.87;;;21.50;99.90;;;;;;4994734;28;20456;-81
2021/07/10 07:55:00;;;;;;;3.60;3.40;;;21.90;99.90;;;;;;4993770;28;20962;-81
2021/07/10 07:57:29;;;;;;;4.07;3.87;;;22.10;99.90;;;;;;4994324;28;20451;-80
2021/07/10 07:59:55;;;;;;;3.93;3.70;;;22.20;99.90;;;;;;4994777;28;20970;-80
2021/07/10 08:02:23;;;;;;;4.10;3.80;;;22.30;99.90;;;;;;4994050;28;20867;-80
2021/07/10 08:04:49;;;;;;;6.80;4.53;;;22.50;99.90;;;;;;4994195;28;20452;-81
2021/07/10 08:07:16;;;;;;;4.00;3.80;;;22.70;99.90;;;;;;4994102;28;20519;-81
2021/07/10 08:09:43;;;;;;;3.77;3.57;;;22.90;99.90;;;;;;4994258;28;20459;-81
2021/07/10 08:12:12;;;;;;;4.13;3.93;;;23.20;99.90;;;;;;4993977;28;20227;-82
2021/07/10 08:14:40;;;;;;;3.63;3.33;;;23.60;99.90;;;;;;4994177;28;20251;-83
2021/07/10 08:17:07;;;;;;;3.05;2.92;;;23.90;99.90;;;;;;4993878;28;20652;-82
2021/07/10 08:19:34;;;;;;;3.67;3.47;;;24.00;99.90;;;;;;4993735;28;20225;-81
2021/07/10 08:22:00;;;;;;;4.72;4.32;;;24.10;99.90;;;;;;4994145;28;20192;-81
2021/07/10 08:24:27;;;;;;;3.15;3.05;;;24.00;99.90;;;;;;4994235;28;20220;-81
2021/07/10 08:26:54;;;;;;;3.42;3.33;;;24.10;99.90;;;;;;4993846;28;20197;-82
2021/07/10 08:29:21;;;;;;;3.47;3.38;;;24.30;99.90;;;;;;4993975;28;20217;-82
2021/07/10 08:31:49;;;;;;;3.70;3.50;;;24.60;99.90;;;;;;4993862;28;20221;-82
2021/07/10 08:34:16;;;;;;;3.75;3.55;;;24.70;99.90;;;;;;4993938;28;20209;-82
2021/07/10 08:36:42;;;;;;;3.63;3.38;;;24.70;99.90;;;;;;4994050;28;20219;-82
2021/07/10 08:39:09;;;;;;;3.45;2.97;;;24.60;99.90;;;;;;4993903;28;20225;-82
2021/07/10 08:41:36;;;;;;;3.38;3.15;;;24.20;99.90;;;;;;4993984;28;20205;-82
2021/07/10 08:44:04;;;;;;;3.75;3.55;;;24.10;99.90;;;;;;4994753;28;20204;-81
2021/07/10 08:46:31;;;;;;;3.65;3.45;;;24.00;99.90;;;;;;5008926;28;20200;-80
2021/07/10 08:48:59;;;;;;;3.00;2.80;;;24.00;99.90;;;;;;4994069;28;20220;-82
2021/07/10 08:51:27;;;;;;;3.88;3.67;;;24.10;99.90;;;;;;4994161;28;20217;-82
2021/07/10 08:53:53;;;;;;;3.67;3.47;;;24.00;99.90;;;;;;4993937;28;20216;-82
2021/07/10 08:56:20;;;;;;;3.63;3.42;;;24.00;99.90;;;;;;4993678;28;20193;-82
2021/07/10 08:58:47;;;;;;;3.63;3.42;;;23.80;99.90;;;;;;4993517;28;20219;-82
2021/07/10 09:01:14;;;;;;;3.05;2.95;;;23.80;99.90;;;;;;4993560;28;20287;-82
2021/07/10 09:03:41;;;;;;;2.95;2.75;;;23.90;99.90;;;;;;4993544;28;20201;-82
2021/07/10 09:06:10;;;;;;;3.50;3.10;;;24.10;99.90;;;;;;4994056;28;20205;-82
2021/07/10 09:08:37;;;;;;;3.22;3.03;;;24.10;99.90;;;;;;4993479;28;20213;-82
2021/07/10 09:11:06;;;;;;;3.55;3.25;;;24.10;99.90;;;;;;4995689;28;20225;-81
2021/07/10 09:13:37;;;;;;;2.88;2.72;;;23.90;99.90;;;;;;4998911;28;20255;-82
2021/07/10 09:16:09;;;;;;;3.28;3.08;;;23.80;99.90;;;;;;4997688;28;20223;-81
2021/07/10 09:18:42;;;;;;;2.47;2.38;;;23.80;99.90;;;;;;4997227;28;20227;-82
2021/07/10 09:21:12;;;;;;;3.47;3.33;;;23.80;99.90;;;;;;4997577;28;20200;-82
2021/07/10 09:23:42;;;;;;;3.50;3.20;;;23.90;99.90;;;;;;4997806;28;20200;-82
2021/07/10 09:26:22;;;;;;;2.88;2.78;;;24.00;99.90;;;;;;4997772;28;20181;-82
2021/07/10 09:29:08;;;;;;;2.38;2.28;;;24.00;99.90;;;;;;4997647;28;20579;-82
2021/07/10 09:31:37;;;;;;;2.35;2.25;;;24.00;99.90;;;;;;4997478;28;20235;-83
2021/07/10 09:34:08;;;;;;;2.92;2.72;;;24.10;99.90;;;;;;4997347;28;20209;-82
2021/07/10 09:36:57;;;;;;;2.70;2.60;;;24.30;99.90;;;;;;4997287;28;20188;-84
2021/07/10 09:39:25;;;;;;;2.75;2.55;;;24.60;99.90;;;;;;4997223;28;20239;-83
2021/07/10 09:41:53;;;;;;;2.80;2.60;;;24.90;99.00;;;;;;4997173;28;20229;-83
2021/07/10 09:44:20;;;;;;;2.70;2.60;;;25.10;99.90;;;;;;4997076;28;20209;-83
2021/07/10 09:46:47;;;;;;;3.25;3.05;;;25.00;99.90;;;;;;4996999;28;20223;-84
2021/07/10 09:49:29;;;;;;;3.83;3.53;;;24.70;99.90;;;;;;4996932;28;20243;-81
2021/07/10 09:52:08;;;;;;;3.47;3.17;;;24.80;99.50;;;;;;4997002;28;20236;-84
2021/07/10 09:54:36;;;;;;;3.17;2.90;;;24.70;99.90;;;;;;4997002;28;20200;-83
2021/07/10 09:57:09;;;;;;;3.60;3.35;;;24.80;99.90;;;;;;4997120;28;20204;-84
2021/07/10 09:59:40;;;;;;;3.38;3.08;;;24.90;99.90;;;;;;4996610;28;20230;-84
2021/07/10 10:02:20;;;;;;;3.30;3.10;;;25.00;99.90;;;;;;4996808;28;20221;-84
2021/07/10 10:04:47;;;;;;;3.22;3.03;;;25.00;99.90;;;;;;4996920;28;20196;-84
2021/07/10 10:07:21;;;;;;;3.13;2.95;;;25.10;98.70;;;;;;4996856;28;20197;-83
2021/07/10 10:09:55;;;;;;;3.03;2.60;;;25.20;99.10;;;;;;4996619;28;20229;-83
2021/07/10 10:12:22;;;;;;;2.65;2.55;;;25.30;98.70;;;;;;4996422;28;20211;-84
2021/07/10 10:14:58;;;;;;;2.75;2.65;;;25.40;99.10;;;;;;4996418;28;20184;-85
2021/07/10 10:17:26;;;;;;;3.50;3.20;;;25.60;98.20;;;;;;4996504;28;20702;-84
2021/07/10 10:19:53;;;;;;;3.25;3.10;;;25.80;97.90;;;;;;4996486;28;20231;-85
2021/07/10 10:22:21;;;;;;;3.00;2.80;;;26.10;96.20;;;;;;4996580;28;20272;-82
2021/07/10 10:24:50;;;;;;;3.35;3.08;;;26.30;95.90;;;;;;4996408;28;20208;-83
2021/07/10 10:27:20;;;;;;;4.00;3.78;;;26.30;95.90;;;;;;4994579;28;20223;-83
2021/07/10 10:29:53;;;;;;;3.50;3.03;;;26.40;94.20;;;;;;4996381;28;20240;-83
2021/07/10 10:32:20;;;;;;;2.67;2.58;;;26.50;95.20;;;;;;4995947;28;20209;-85
2021/07/10 10:34:50;;;;;;;2.60;2.50;;;26.70;93.80;;;;;;4996094;28;20568;-83
2021/07/10 10:37:18;;;;;;;2.72;2.45;;;26.70;93.10;;;;;;4995980;28;20185;-84
2021/07/10 10:39:47;;;;;;;2.90;2.72;;;26.80;92.00;;;;;;4996023;28;20260;-84
2021/07/10 10:42:21;;;;;;;2.67;2.58;;;26.80;91.40;;;;;;4996349;28;20201;-83
2021/07/10 10:44:49;;;;;;;2.85;2.75;;;26.40;90.10;;;;;;4995888;28;20223;-84
2021/07/10 10:47:17;;;;;;;2.15;2.05;;;26.00;92.90;;;;;;4995906;28;20629;-84
2021/07/10 10:49:47;;;;;;;2.88;2.75;;;26.10;93.70;;;;;;4995757;28;20221;-84
2021/07/10 10:52:18;;;;;;;2.38;2.28;;;26.30;92.10;;;;;;4996019;28;20209;-84
2021/07/10 10:54:49;;;;;;;2.92;2.78;;;26.20;91.80;;;;;;4995913;28;20208;-85
2021/07/10 10:57:17;;;;;;;3.33;2.30;;;26.00;92.70;;;;;;4995992;28;20189;-84
2021/07/10 10:59:45;;;;;;;2.42;2.33;;;26.00;93.10;;;;;;4995507;28;20660;-83
2021/07/10 11:02:57;;;;;;;3.08;2.88;;;26.10;90.10;;;;;;4995554;28;20233;-84
2021/07/10 11:05:51;;;;;;;2.72;2.53;;;26.10;90.00;;;;;;4996251;28;20576;-85
2021/07/10 11:08:23;;;;;;;2.20;2.05;;;26.00;91.30;;;;;;4995628;28;20224;-83
2021/07/10 11:11:18;;;;;;;2.63;2.42;;;26.00;89.90;;;;;;5006275;28;20187;-82
2021/07/10 11:14:10;;;;;;;2.92;2.78;;;25.70;89.00;;;;;;4997174;28;20196;-84
2021/07/10 11:16:37;;;;;;;1.90;1.80;;;25.40;90.10;;;;;;4995177;28;20209;-82
2021/07/10 11:19:06;;;;;;;2.42;2.33;;;25.20;87.20;;;;;;4995383;28;20233;-82
2021/07/10 11:21:52;;;;;;;3.38;1.92;;;25.10;88.40;;;;;;4995400;28;20272;-84
2021/07/10 11:24:25;;;;;;;2.38;2.22;;;25.10;91.60;;;;;;4995454;28;20192;-84
2021/07/10 11:27:26;;;;;;;1.85;1.77;;;25.20;89.00;;;;;;4995210;28;20213;-84
2021/07/10 11:30:17;;;;;;;2.53;2.35;;;25.20;89.40;;;;;;4992503;28;20278;-84
2021/07/10 11:32:44;;;;;;;2.25;2.15;;;25.30;88.50;;;;;;4995219;28;20205;-83
2021/07/10 11:35:11;;;;;;;2.33;2.22;;;25.30;90.00;;;;;;4995265;28;20244;-82
2021/07/10 11:37:43;;;;;;;2.85;2.75;;;25.30;90.90;;;;;;4994741;28;20185;-83
2021/07/10 11:40:11;;;;;;;2.50;2.40;;;25.30;89.50;;;;;;4995037;28;20543;-83
2021/07/10 11:42:45;;;;;;;3.33;2.25;;;25.10;89.90;;;;;;4994855;28;20192;-82
2021/07/10 11:45:16;;;;;;;2.80;2.70;;;25.00;89.90;;;;;;4995012;28;20195;-83
2021/07/10 11:47:44;;;;;;;2.67;2.58;;;24.90;91.00;;;;;;4994862;28;20193;-83
2021/07/10 11:50:15;;;;;;;3.13;2.92;;;24.80;92.00;;;;;;4994771;28;20557;-83
2021/07/10 11:52:42;;;;;;;2.80;2.47;;;24.60;92.00;;;;;;4994538;28;20224;-82
2021/07/10 11:55:11;;;;;;;2.83;2.63;;;24.60;91.70;;;;;;4994802;28;20257;-82
2021/07/10 11:57:40;;;;;;;3.17;2.97;;;24.60;92.00;;;;;;4994886;28;20189;-83
2021/07/10 12:00:11;;;;;;;3.13;2.88;;;24.60;92.40;;;;;;4994710;28;20632;-82
2021/07/10 12:02:38;;;;;;;3.20;3.10;;;24.60;93.00;;;;;;4994415;28;20233;-80
2021/07/10 12:05:07;;;;;;;3.03;2.88;;;24.70;94.00;;;;;;4994635;28;20586;-80
2021/07/10 12:07:36;;;;;;;3.10;2.90;;;24.60;92.70;;;;;;4994200;28;20192;-80
2021/07/10 12:10:05;;;;;;;3.30;2.92;;;24.40;92.80;;;;;;4994615;28;20184;-82
2021/07/10 12:12:33;;;;;;;2.63;2.53;;;24.30;93.00;;;;;;4994163;28;20225;-82
2021/07/10 12:15:00;;;;;;;2.83;2.63;;;24.20;93.20;;;;;;4994167;28;20667;-82
2021/07/10 12:17:28;;;;;;;3.30;3.10;;;24.30;92.20;;;;;;4994690;28;20188;-82
2021/07/10 12:19:55;;;;;;;3.60;3.40;;;24.40;93.50;;;;;;4994006;28;20225;-80
2021/07/10 12:22:23;;;;;;;3.08;2.97;;;24.20;93.30;;;;;;4994374;28;20195;-85
2021/07/10 12:24:59;;;;;;;3.08;2.97;;;24.20;93.40;;;;;;4994295;28;20204;-82
2021/07/10 12:27:30;;;;;;;3.10;3.00;;;24.20;94.40;;;;;;4994330;28;20197;-83
2021/07/10 12:29:57;;;;;;;3.00;2.90;;;24.30;93.80;;;;;;4994314;28;20225;-83
2021/07/10 12:32:26;;;;;;;3.60;3.30;;;24.30;95.20;;;;;;4994209;28;20209;-83
2021/07/10 12:34:55;;;;;;;3.33;3.23;;;24.40;93.50;;;;;;4993906;28;20205;-84
2021/07/10 12:37:22;;;;;;;3.58;3.38;;;24.50;93.40;;;;;;4994839;28;20589;-84
2021/07/10 12:39:49;;;;;;;3.83;3.63;;;24.50;93.70;;;;;;4993992;28;20228;-82
2021/07/10 12:42:16;;;;;;;3.95;3.70;;;24.50;92.90;;;;;;4994121;28;20696;-83
2021/07/10 12:44:43;;;;;;;3.30;3.10;;;24.60;93.50;;;;;;4994428;28;20198;-84
2021/07/10 12:47:15;;;;;;;6.40;3.47;;;24.50;93.80;;;;;;4993824;28;20193;-87
2021/07/10 12:49:46;;;;;;;3.40;3.10;;;24.40;94.50;;;;;;4993386;28;20619;-84